TimePDT,TemperatureF,Dew PointF,Humidity,Sea Level PressureIn,VisibilityMPH,Wind Direction,Wind SpeedMPH,Gust SpeedMPH,PrecipitationIn,Events,Conditions,WindDirDegrees,DateUTC
1:53 AM,48.9,46.0,90,29.85,9.0,Calm,Calm,-,N/A,,Clear,0,2013-05-07 08:53:00
2:53 AM,48.0,46.0,93,29.86,10.0,ESE,3.5,-,N/A,,Clear,110,2013-05-07 09:53:00
3:53 AM,48.0,46.0,93,29.88,9.0,ESE,4.6,-,N/A,,Clear,110,2013-05-07 10:53:00
4:06 AM,48.2,46.4,93,29.89,8.0,East,4.6,-,N/A,,Scattered Clouds,100,2013-05-07 11:06:00
4:15 AM,48.2,46.4,93,29.89,8.0,East,4.6,-,N/A,,Mostly Cloudy,100,2013-05-07 11:15:00
4:26 AM,46.4,46.4,100,29.89,8.0,East,3.5,-,N/A,,Scattered Clouds,90,2013-05-07 11:26:00
4:35 AM,48.2,46.4,93,29.90,8.0,East,3.5,-,N/A,,Mostly Cloudy,100,2013-05-07 11:35:00
4:53 AM,46.9,46.0,97,29.90,7.0,Calm,Calm,-,N/A,,Mostly Cloudy,0,2013-05-07 11:53:00
5:05 AM,46.4,44.6,93,29.90,6.0,Calm,Calm,-,N/A,,Scattered Clouds,0,2013-05-07 12:05:00
5:27 AM,48.2,46.4,93,29.90,8.0,ESE,4.6,-,N/A,,Mostly Cloudy,110,2013-05-07 12:27:00
5:53 AM,48.0,46.9,96,29.91,1.0,SSE,4.6,-,N/A,,Overcast,150,2013-05-07 12:53:00
6:00 AM,48.2,46.4,93,29.91,0.2,SE,4.6,-,N/A,Fog,Fog,140,2013-05-07 13:00:00
6:53 AM,48.0,46.9,96,29.94,0.2,ESE,3.5,-,N/A,Fog,Fog,120,2013-05-07 13:53:00
7:10 AM,48.2,48.2,100,29.94,2.0,SE,4.6,-,N/A,,Overcast,130,2013-05-07 14:10:00
7:18 AM,48.2,48.2,100,29.94,4.0,ESE,5.8,-,N/A,,Overcast,110,2013-05-07 14:18:00
7:53 AM,50.0,48.9,96,29.95,10.0,SE,6.9,-,N/A,,Overcast,130,2013-05-07 14:53:00
8:02 AM,50.0,48.2,94,29.94,10.0,SE,6.9,-,N/A,,Overcast,130,2013-05-07 15:02:00
8:53 AM,52.0,48.9,89,29.96,10.0,Variable,5.8,-,N/A,,Overcast,0,2013-05-07 15:53:00
9:53 AM,52.0,46.9,83,29.98,10.0,SSW,11.5,18.4,N/A,,Mostly Cloudy,200,2013-05-07 16:53:00
10:53 AM,53.1,48.9,86,29.98,10.0,SSW,6.9,-,N/A,,Overcast,210,2013-05-07 17:53:00
11:53 AM,55.9,50.0,80,29.98,10.0,SE,4.6,-,N/A,,Overcast,140,2013-05-07 18:53:00
12:53 PM,55.9,50.0,80,29.98,10.0,SE,9.2,-,N/A,,Overcast,130,2013-05-07 19:53:00
1:14 PM,55.4,50.0,82,29.98,10.0,SE,8.1,-,N/A,,Overcast,130,2013-05-07 20:14:00
1:53 PM,57.0,51.1,81,29.98,10.0,Variable,5.8,-,N/A,,Overcast,0,2013-05-07 20:53:00
2:25 PM,57.2,51.8,82,29.97,10.0,SW,8.1,-,N/A,,Partly Cloudy,230,2013-05-07 21:25:00
2:53 PM,59.0,48.9,69,29.97,10.0,SW,8.1,-,N/A,,Clear,230,2013-05-07 21:53:00
3:53 PM,60.1,50.0,69,29.96,10.0,SW,5.8,-,N/A,,Clear,220,2013-05-07 22:53:00
4:53 PM,57.9,50.0,75,29.95,10.0,ESE,6.9,-,N/A,,Clear,120,2013-05-07 23:53:00
5:53 PM,55.9,48.9,77,29.95,10.0,ESE,6.9,-,N/A,,Clear,120,2013-05-08 00:53:00
6:53 PM,54.0,48.0,80,29.94,10.0,East,4.6,-,N/A,,Clear,100,2013-05-08 01:53:00
7:53 PM,54.0,48.0,80,29.93,10.0,Calm,Calm,-,N/A,,Clear,0,2013-05-08 02:53:00
8:53 PM,50.0,46.9,89,29.94,10.0,Calm,Calm,-,N/A,,Clear,0,2013-05-08 03:53:00
9:53 PM,48.0,46.0,93,29.96,10.0,Calm,Calm,-,N/A,,Clear,0,2013-05-08 04:53:00
10:53 PM,50.0,46.9,89,29.97,10.0,Calm,Calm,-,N/A,,Clear,0,2013-05-08 05:53:00
11:53 PM,50.0,46.9,89,29.99,10.0,SSW,6.9,-,N/A,,Clear,210,2013-05-08 06:53:00